Mito, Japan

11:42 PM JST on September 30, 2014 (GMT +0900)
Hyakuri Aero | Change Station
CLOSE
Current Station
Airport
Location: Hyakuri AB,
Elevation: 115 ft
Nearby Weather Stations

Elev 115 ft 36.18 °N, 140.41 °E | Updated 42 minutes ago

Mostly Cloudy
Mostly Cloudy
68 °F
Feels Like 68 °F
N
4
Wind Variable Wind from North

Today
High -- | Low -- °F
--% Chance of Precip.
Yesterday
High -- | Low -- °F
Precip. -- in
5:31 AM 5:24 PM
Waxing Crescent, 37% visible
Pressure 29.95 in
Visibility 6.2 miles
Clouds Few 2500 ft
Mostly Cloudy 18000 ft
Dew Point 64 °F
Humidity 88%
Rainfall 0.00 in
Snow Depth Not available.
UV 0 out of 12
Pollen Not available.
Air Quality Not available.
Flu Activity Not available.
METAR RJAH 301400Z 01003KT 9999 FEW025 BKN180 20/18 Q1014

More Conditions Fewer Conditions

Pressure 29.95 in
Visibility 6.2 miles
Clouds Few 2500 ft
Mostly Cloudy 18000 ft
Dew Point 64 °F
Humidity 88%
Rainfall 0.00 in
Snow Depth Not available.
UV 0 out of 12
Pollen Not available.
Air Quality Not available.
Flu Activity Not available.
METAR RJAH 301400Z 01003KT 9999 FEW025 BKN180 20/18 Q1014

More Conditions Fewer Conditions

10-Day Weather Forecast

Almanac

Astronomy

Sep. 30, 2014 Rise Set
Actual Time 5:31 AM JST 5:24 PM JST
Civil Twilight 5:06 AM JST 5:49 PM JST
Nautical Twilight 4:36 AM JST 6:19 PM JST
Astronomical Twilight 4:06 AM JST 6:49 PM JST
Moon 10:56 AM JST 9:25 PM JST
Length of Visible Light 12h 43m
Length of Day
11h 52m
Tomorrow will be 2m 17s shorter.
Waxing Crescent, 37% of the Moon is Illuminated
Today
Waxing Crescent
Oct 1
First Quarter
Oct 8
Full
Oct 15
Last Quarter
Oct 23
New

Yesterday's Extremes

Country Highs Country Lows

Community

WunderPhotos

Upload Photos

1,757,641 photos uploaded!

WunderBlogs® & News

By Dr. Jeff Masters
Director of Meteorology, Weather Underground
By Kari Strenfel
Meteorologist, Weather Underground
By Christopher C. Burt
Weather Historian, Weather Underground
September 30, 2014
September 30, 2014
September 30, 2014

Nearby

Snow Depth

Not available.

Earthquake Activity

City Distance Mag. Time & Date
No recent earthquake activity has been reported nearby.
Minimum magnitude displayed is 2.5.

Coastal Water Temperatures

Place Temperature
No Stations Reporting

Nearby Weather Stations